sensor_id;sensor_type;location;lat;lon;timestamp;P1;durP1;ratioP1;P2;durP2;ratioP2
37805;SDS011;25082;50.870;0.022;2022-08-18T00:02:22;5.15;;;3.70;;
37805;SDS011;25082;50.870;0.022;2022-08-18T00:04:49;4.90;;;3.63;;
37805;SDS011;25082;50.870;0.022;2022-08-18T00:07:18;5.82;;;4.00;;
37805;SDS011;25082;50.870;0.022;2022-08-18T00:09:48;5.40;;;4.13;;
37805;SDS011;25082;50.870;0.022;2022-08-18T00:12:15;5.07;;;3.88;;
37805;SDS011;25082;50.870;0.022;2022-08-18T00:14:43;6.97;;;4.53;;
37805;SDS011;25082;50.870;0.022;2022-08-18T00:17:10;3.53;;;3.13;;
37805;SDS011;25082;50.870;0.022;2022-08-18T00:19:35;5.88;;;3.95;;
37805;SDS011;25082;50.870;0.022;2022-08-18T00:22:01;6.53;;;4.45;;
37805;SDS011;25082;50.870;0.022;2022-08-18T00:24:27;5.10;;;4.10;;
37805;SDS011;25082;50.870;0.022;2022-08-18T00:26:53;6.32;;;3.65;;
37805;SDS011;25082;50.870;0.022;2022-08-18T00:29:19;5.93;;;3.97;;
37805;SDS011;25082;50.870;0.022;2022-08-18T00:31:45;6.40;;;3.90;;
37805;SDS011;25082;50.870;0.022;2022-08-18T00:34:10;5.32;;;3.70;;
37805;SDS011;25082;50.870;0.022;2022-08-18T00:36:36;5.30;;;4.10;;
37805;SDS011;25082;50.870;0.022;2022-08-18T00:39:02;5.47;;;3.97;;
37805;SDS011;25082;50.870;0.022;2022-08-18T00:41:28;5.28;;;4.15;;
37805;SDS011;25082;50.870;0.022;2022-08-18T00:43:54;4.82;;;3.80;;
37805;SDS011;25082;50.870;0.022;2022-08-18T00:46:32;4.88;;;3.92;;
37805;SDS011;25082;50.870;0.022;2022-08-18T00:49:00;5.65;;;4.00;;
37805;SDS011;25082;50.870;0.022;2022-08-18T00:51:34;6.10;;;4.20;;
37805;SDS011;25082;50.870;0.022;2022-08-18T00:54:09;5.22;;;4.22;;
37805;SDS011;25082;50.870;0.022;2022-08-18T00:56:44;4.35;;;3.50;;
37805;SDS011;25082;50.870;0.022;2022-08-18T01:01:57;6.78;;;4.13;;
37805;SDS011;25082;50.870;0.022;2022-08-18T01:04:35;5.68;;;4.72;;
37805;SDS011;25082;50.870;0.022;2022-08-18T01:07:07;4.88;;;4.18;;
37805;SDS011;25082;50.870;0.022;2022-08-18T01:09:38;4.95;;;4.25;;
37805;SDS011;25082;50.870;0.022;2022-08-18T01:12:04;6.00;;;4.40;;
37805;SDS011;25082;50.870;0.022;2022-08-18T01:14:30;5.45;;;4.25;;
37805;SDS011;25082;50.870;0.022;2022-08-18T01:16:56;6.00;;;4.47;;
37805;SDS011;25082;50.870;0.022;2022-08-18T01:19:40;8.30;;;4.75;;
37805;SDS011;25082;50.870;0.022;2022-08-18T01:22:31;6.13;;;4.45;;
37805;SDS011;25082;50.870;0.022;2022-08-18T01:25:03;5.57;;;4.13;;
37805;SDS011;25082;50.870;0.022;2022-08-18T01:27:50;5.25;;;4.38;;
37805;SDS011;25082;50.870;0.022;2022-08-18T01:30:16;5.00;;;4.40;;
37805;SDS011;25082;50.870;0.022;2022-08-18T01:32:43;4.90;;;3.97;;
37805;SDS011;25082;50.870;0.022;2022-08-18T01:35:14;5.80;;;4.18;;
37805;SDS011;25082;50.870;0.022;2022-08-18T01:37:41;5.72;;;4.30;;
37805;SDS011;25082;50.870;0.022;2022-08-18T01:40:08;6.72;;;4.75;;
37805;SDS011;25082;50.870;0.022;2022-08-18T01:42:36;6.20;;;4.97;;
37805;SDS011;25082;50.870;0.022;2022-08-18T01:45:03;7.43;;;4.40;;
37805;SDS011;25082;50.870;0.022;2022-08-18T01:47:32;4.93;;;4.43;;
37805;SDS011;25082;50.870;0.022;2022-08-18T01:49:59;5.75;;;4.53;;
37805;SDS011;25082;50.870;0.022;2022-08-18T01:52:25;6.43;;;4.82;;
37805;SDS011;25082;50.870;0.022;2022-08-18T01:54:53;6.85;;;4.82;;
37805;SDS011;25082;50.870;0.022;2022-08-18T01:57:21;7.07;;;4.35;;
37805;SDS011;25082;50.870;0.022;2022-08-18T01:59:48;5.35;;;4.35;;
37805;SDS011;25082;50.870;0.022;2022-08-18T02:02:15;6.55;;;4.88;;
37805;SDS011;25082;50.870;0.022;2022-08-18T02:04:46;5.70;;;4.50;;
37805;SDS011;25082;50.870;0.022;2022-08-18T02:07:12;6.63;;;4.55;;
37805;SDS011;25082;50.870;0.022;2022-08-18T02:09:39;8.25;;;4.80;;
37805;SDS011;25082;50.870;0.022;2022-08-18T02:12:07;6.00;;;4.82;;
37805;SDS011;25082;50.870;0.022;2022-08-18T02:14:34;6.93;;;5.03;;
37805;SDS011;25082;50.870;0.022;2022-08-18T02:17:01;6.63;;;4.80;;
37805;SDS011;25082;50.870;0.022;2022-08-18T02:19:38;6.53;;;4.78;;
37805;SDS011;25082;50.870;0.022;2022-08-18T02:22:08;7.22;;;4.70;;
37805;SDS011;25082;50.870;0.022;2022-08-18T02:24:35;5.97;;;4.85;;
37805;SDS011;25082;50.870;0.022;2022-08-18T02:27:01;5.45;;;4.47;;
37805;SDS011;25082;50.870;0.022;2022-08-18T02:29:27;7.13;;;4.90;;
37805;SDS011;25082;50.870;0.022;2022-08-18T02:31:53;5.63;;;4.82;;
37805;SDS011;25082;50.870;0.022;2022-08-18T02:34:19;8.00;;;4.80;;
37805;SDS011;25082;50.870;0.022;2022-08-18T02:36:45;7.95;;;5.43;;
37805;SDS011;25082;50.870;0.022;2022-08-18T02:39:11;4.95;;;4.40;;
37805;SDS011;25082;50.870;0.022;2022-08-18T02:41:37;7.07;;;5.43;;
37805;SDS011;25082;50.870;0.022;2022-08-18T02:44:04;6.20;;;4.85;;
37805;SDS011;25082;50.870;0.022;2022-08-18T02:46:31;5.40;;;4.75;;
37805;SDS011;25082;50.870;0.022;2022-08-18T02:49:00;5.72;;;4.50;;
37805;SDS011;25082;50.870;0.022;2022-08-18T02:51:26;6.45;;;5.30;;
37805;SDS011;25082;50.870;0.022;2022-08-18T02:53:52;6.18;;;5.00;;
37805;SDS011;25082;50.870;0.022;2022-08-18T02:56:19;5.20;;;4.63;;
37805;SDS011;25082;50.870;0.022;2022-08-18T02:58:59;5.55;;;4.60;;
37805;SDS011;25082;50.870;0.022;2022-08-18T03:01:29;5.93;;;5.22;;
37805;SDS011;25082;50.870;0.022;2022-08-18T03:03:58;6.97;;;5.03;;
37805;SDS011;25082;50.870;0.022;2022-08-18T03:06:26;6.43;;;4.85;;
37805;SDS011;25082;50.870;0.022;2022-08-18T03:08:53;6.15;;;5.20;;
37805;SDS011;25082;50.870;0.022;2022-08-18T03:11:20;6.78;;;5.55;;
37805;SDS011;25082;50.870;0.022;2022-08-18T03:13:51;6.78;;;5.20;;
37805;SDS011;25082;50.870;0.022;2022-08-18T03:16:18;5.80;;;4.88;;
37805;SDS011;25082;50.870;0.022;2022-08-18T03:18:45;5.82;;;4.57;;
37805;SDS011;25082;50.870;0.022;2022-08-18T03:21:13;6.28;;;4.60;;
37805;SDS011;25082;50.870;0.022;2022-08-18T03:23:42;6.05;;;4.85;;
37805;SDS011;25082;50.870;0.022;2022-08-18T03:26:09;6.53;;;5.13;;
37805;SDS011;25082;50.870;0.022;2022-08-18T03:28:37;7.35;;;5.18;;
37805;SDS011;25082;50.870;0.022;2022-08-18T03:31:05;6.28;;;5.65;;
37805;SDS011;25082;50.870;0.022;2022-08-18T03:33:31;7.00;;;5.22;;
37805;SDS011;25082;50.870;0.022;2022-08-18T03:36:07;8.02;;;4.90;;
37805;SDS011;25082;50.870;0.022;2022-08-18T03:38:36;7.05;;;4.97;;
37805;SDS011;25082;50.870;0.022;2022-08-18T03:41:04;6.15;;;4.88;;
37805;SDS011;25082;50.870;0.022;2022-08-18T03:43:41;6.03;;;4.53;;
37805;SDS011;25082;50.870;0.022;2022-08-18T03:46:08;5.80;;;4.78;;
37805;SDS011;25082;50.870;0.022;2022-08-18T03:48:36;6.28;;;4.65;;
37805;SDS011;25082;50.870;0.022;2022-08-18T03:51:06;5.90;;;4.80;;
37805;SDS011;25082;50.870;0.022;2022-08-18T03:53:37;5.72;;;4.72;;
37805;SDS011;25082;50.870;0.022;2022-08-18T03:56:07;7.20;;;4.80;;
37805;SDS011;25082;50.870;0.022;2022-08-18T03:58:40;6.38;;;5.32;;
37805;SDS011;25082;50.870;0.022;2022-08-18T04:01:09;6.18;;;4.95;;
37805;SDS011;25082;50.870;0.022;2022-08-18T04:03:37;5.75;;;4.53;;
37805;SDS011;25082;50.870;0.022;2022-08-18T04:06:03;8.00;;;5.28;;
37805;SDS011;25082;50.870;0.022;2022-08-18T04:08:29;6.10;;;5.38;;
37805;SDS011;25082;50.870;0.022;2022-08-18T04:10:55;5.47;;;4.88;;
37805;SDS011;25082;50.870;0.022;2022-08-18T04:13:22;7.25;;;5.28;;
37805;SDS011;25082;50.870;0.022;2022-08-18T04:15:48;5.35;;;4.85;;
37805;SDS011;25082;50.870;0.022;2022-08-18T04:18:14;7.25;;;5.57;;
37805;SDS011;25082;50.870;0.022;2022-08-18T04:20:39;5.97;;;4.95;;
37805;SDS011;25082;50.870;0.022;2022-08-18T04:23:05;6.05;;;5.45;;
37805;SDS011;25082;50.870;0.022;2022-08-18T04:25:31;6.28;;;4.47;;
37805;SDS011;25082;50.870;0.022;2022-08-18T04:27:57;6.05;;;4.75;;
37805;SDS011;25082;50.870;0.022;2022-08-18T04:30:25;5.32;;;4.75;;
37805;SDS011;25082;50.870;0.022;2022-08-18T04:32:53;6.45;;;5.18;;
37805;SDS011;25082;50.870;0.022;2022-08-18T04:35:19;6.13;;;5.38;;
37805;SDS011;25082;50.870;0.022;2022-08-18T04:37:46;6.50;;;5.20;;
37805;SDS011;25082;50.870;0.022;2022-08-18T04:40:12;5.70;;;5.10;;
37805;SDS011;25082;50.870;0.022;2022-08-18T04:42:38;6.15;;;5.55;;
37805;SDS011;25082;50.870;0.022;2022-08-18T04:45:04;6.72;;;5.35;;
37805;SDS011;25082;50.870;0.022;2022-08-18T04:47:31;5.97;;;4.72;;
37805;SDS011;25082;50.870;0.022;2022-08-18T04:49:57;5.65;;;5.03;;
37805;SDS011;25082;50.870;0.022;2022-08-18T04:52:22;6.15;;;4.80;;
37805;SDS011;25082;50.870;0.022;2022-08-18T04:55:07;8.93;;;4.95;;
37805;SDS011;25082;50.870;0.022;2022-08-18T04:57:34;5.43;;;4.43;;
37805;SDS011;25082;50.870;0.022;2022-08-18T05:00:00;5.75;;;4.78;;
37805;SDS011;25082;50.870;0.022;2022-08-18T05:02:27;7.03;;;4.55;;
37805;SDS011;25082;50.870;0.022;2022-08-18T05:04:53;5.32;;;4.75;;
37805;SDS011;25082;50.870;0.022;2022-08-18T05:07:20;5.68;;;4.93;;
37805;SDS011;25082;50.870;0.022;2022-08-18T05:09:49;6.35;;;5.15;;
37805;SDS011;25082;50.870;0.022;2022-08-18T05:12:19;6.18;;;5.18;;
37805;SDS011;25082;50.870;0.022;2022-08-18T05:14:45;7.28;;;4.78;;
37805;SDS011;25082;50.870;0.022;2022-08-18T05:17:12;7.25;;;4.85;;
37805;SDS011;25082;50.870;0.022;2022-08-18T05:19:39;7.55;;;5.20;;
37805;SDS011;25082;50.870;0.022;2022-08-18T05:22:05;6.53;;;5.05;;
37805;SDS011;25082;50.870;0.022;2022-08-18T05:24:31;5.13;;;4.60;;
37805;SDS011;25082;50.870;0.022;2022-08-18T05:26:59;5.85;;;4.50;;
37805;SDS011;25082;50.870;0.022;2022-08-18T05:29:25;6.47;;;4.97;;
37805;SDS011;25082;50.870;0.022;2022-08-18T05:31:53;5.45;;;4.78;;
37805;SDS011;25082;50.870;0.022;2022-08-18T05:34:19;5.47;;;4.65;;
37805;SDS011;25082;50.870;0.022;2022-08-18T05:36:50;7.25;;;5.10;;
37805;SDS011;25082;50.870;0.022;2022-08-18T05:40:00;5.68;;;5.05;;
37805;SDS011;25082;50.870;0.022;2022-08-18T05:42:29;5.95;;;5.32;;
37805;SDS011;25082;50.870;0.022;2022-08-18T05:45:02;6.60;;;4.85;;
37805;SDS011;25082;50.870;0.022;2022-08-18T05:47:39;5.45;;;4.85;;
37805;SDS011;25082;50.870;0.022;2022-08-18T05:50:27;7.55;;;5.22;;
37805;SDS011;25082;50.870;0.022;2022-08-18T05:55:43;6.38;;;5.03;;
37805;SDS011;25082;50.870;0.022;2022-08-18T05:58:44;5.60;;;4.85;;
37805;SDS011;25082;50.870;0.022;2022-08-18T06:01:15;7.15;;;4.82;;
37805;SDS011;25082;50.870;0.022;2022-08-18T06:03:54;5.93;;;4.53;;
37805;SDS011;25082;50.870;0.022;2022-08-18T06:06:44;7.72;;;4.97;;
37805;SDS011;25082;50.870;0.022;2022-08-18T06:09:15;6.25;;;4.75;;
37805;SDS011;25082;50.870;0.022;2022-08-18T06:11:42;6.65;;;5.35;;
37805;SDS011;25082;50.870;0.022;2022-08-18T06:14:08;5.45;;;4.80;;
37805;SDS011;25082;50.870;0.022;2022-08-18T06:16:41;5.82;;;5.00;;
37805;SDS011;25082;50.870;0.022;2022-08-18T06:27:53;7.05;;;5.10;;
37805;SDS011;25082;50.870;0.022;2022-08-18T06:36:01;6.95;;;4.25;;
37805;SDS011;25082;50.870;0.022;2022-08-18T06:41:36;6.07;;;4.38;;
37805;SDS011;25082;50.870;0.022;2022-08-18T06:44:13;4.90;;;4.40;;
37805;SDS011;25082;50.870;0.022;2022-08-18T06:46:55;6.80;;;5.00;;
37805;SDS011;25082;50.870;0.022;2022-08-18T06:49:47;5.18;;;4.40;;
37805;SDS011;25082;50.870;0.022;2022-08-18T06:52:37;5.88;;;4.70;;
37805;SDS011;25082;50.870;0.022;2022-08-18T06:55:16;4.97;;;4.47;;
37805;SDS011;25082;50.870;0.022;2022-08-18T06:57:56;5.82;;;4.68;;
37805;SDS011;25082;50.870;0.022;2022-08-18T07:00:25;5.27;;;4.50;;
37805;SDS011;25082;50.870;0.022;2022-08-18T07:02:56;6.55;;;4.85;;
37805;SDS011;25082;50.870;0.022;2022-08-18T07:05:26;7.85;;;4.72;;
37805;SDS011;25082;50.870;0.022;2022-08-18T07:10:41;5.28;;;4.30;;
37805;SDS011;25082;50.870;0.022;2022-08-18T07:15:43;5.50;;;4.57;;
37805;SDS011;25082;50.870;0.022;2022-08-18T07:18:10;5.63;;;4.45;;
37805;SDS011;25082;50.870;0.022;2022-08-18T07:20:56;4.90;;;4.30;;
37805;SDS011;25082;50.870;0.022;2022-08-18T07:23:25;5.43;;;4.47;;
37805;SDS011;25082;50.870;0.022;2022-08-18T07:26:10;5.07;;;4.53;;
37805;SDS011;25082;50.870;0.022;2022-08-18T07:28:40;6.90;;;4.70;;
37805;SDS011;25082;50.870;0.022;2022-08-18T07:36:29;5.57;;;4.82;;
37805;SDS011;25082;50.870;0.022;2022-08-18T07:39:02;10.13;;;4.95;;
37805;SDS011;25082;50.870;0.022;2022-08-18T07:42:00;5.90;;;4.72;;
37805;SDS011;25082;50.870;0.022;2022-08-18T07:44:53;12.95;;;5.22;;
37805;SDS011;25082;50.870;0.022;2022-08-18T07:47:37;10.18;;;6.25;;
37805;SDS011;25082;50.870;0.022;2022-08-18T07:50:12;16.80;;;10.05;;
37805;SDS011;25082;50.870;0.022;2022-08-18T07:52:52;22.60;;;16.67;;
37805;SDS011;25082;50.870;0.022;2022-08-18T07:55:28;23.00;;;17.80;;
37805;SDS011;25082;50.870;0.022;2022-08-18T07:58:19;27.73;;;20.95;;
37805;SDS011;25082;50.870;0.022;2022-08-18T08:00:55;22.55;;;19.67;;
37805;SDS011;25082;50.870;0.022;2022-08-18T08:06:40;23.30;;;20.45;;
37805;SDS011;25082;50.870;0.022;2022-08-18T08:12:38;27.85;;;21.02;;
37805;SDS011;25082;50.870;0.022;2022-08-18T08:20:42;25.90;;;22.10;;
37805;SDS011;25082;50.870;0.022;2022-08-18T08:23:17;23.98;;;21.38;;
37805;SDS011;25082;50.870;0.022;2022-08-18T08:36:51;29.58;;;24.42;;
37805;SDS011;25082;50.870;0.022;2022-08-18T08:39:26;27.30;;;22.20;;
37805;SDS011;25082;50.870;0.022;2022-08-18T08:47:27;24.00;;;20.52;;
37805;SDS011;25082;50.870;0.022;2022-08-18T08:50:08;21.60;;;19.30;;
37805;SDS011;25082;50.870;0.022;2022-08-18T08:55:31;23.60;;;19.10;;
37805;SDS011;25082;50.870;0.022;2022-08-18T09:00:32;23.88;;;19.23;;
37805;SDS011;25082;50.870;0.022;2022-08-18T09:05:41;23.27;;;16.45;;
37805;SDS011;25082;50.870;0.022;2022-08-18T09:21:31;22.05;;;18.00;;
37805;SDS011;25082;50.870;0.022;2022-08-18T09:26:50;22.85;;;15.82;;
37805;SDS011;25082;50.870;0.022;2022-08-18T09:37:30;23.10;;;20.60;;
37805;SDS011;25082;50.870;0.022;2022-08-18T09:40:10;33.15;;;22.27;;
37805;SDS011;25082;50.870;0.022;2022-08-18T09:43:13;25.95;;;23.15;;
37805;SDS011;25082;50.870;0.022;2022-08-18T09:50:51;25.38;;;21.65;;
37805;SDS011;25082;50.870;0.022;2022-08-18T09:56:09;25.67;;;19.73;;
37805;SDS011;25082;50.870;0.022;2022-08-18T10:06:46;30.85;;;22.95;;
37805;SDS011;25082;50.870;0.022;2022-08-18T10:09:35;24.77;;;22.08;;
37805;SDS011;25082;50.870;0.022;2022-08-18T10:12:19;24.85;;;22.23;;
37805;SDS011;25082;50.870;0.022;2022-08-18T10:17:48;25.05;;;19.75;;
37805;SDS011;25082;50.870;0.022;2022-08-18T10:20:38;27.90;;;24.90;;
37805;SDS011;25082;50.870;0.022;2022-08-18T10:31:30;32.05;;;23.63;;
37805;SDS011;25082;50.870;0.022;2022-08-18T10:37:22;31.73;;;26.77;;
37805;SDS011;25082;50.870;0.022;2022-08-18T10:40:04;30.40;;;25.75;;
37805;SDS011;25082;50.870;0.022;2022-08-18T10:42:43;29.60;;;26.40;;
37805;SDS011;25082;50.870;0.022;2022-08-18T10:47:44;34.55;;;25.88;;
37805;SDS011;25082;50.870;0.022;2022-08-18T10:55:49;34.40;;;30.10;;
37805;SDS011;25082;50.870;0.022;2022-08-18T10:58:33;33.92;;;30.38;;
37805;SDS011;25082;50.870;0.022;2022-08-18T11:01:37;34.33;;;30.60;;
37805;SDS011;25082;50.870;0.022;2022-08-18T11:04:07;34.95;;;31.33;;
37805;SDS011;25082;50.870;0.022;2022-08-18T11:07:10;33.72;;;30.15;;
37805;SDS011;25082;50.870;0.022;2022-08-18T11:09:40;32.03;;;28.25;;
37805;SDS011;25082;50.870;0.022;2022-08-18T11:12:08;34.03;;;30.08;;
37805;SDS011;25082;50.870;0.022;2022-08-18T11:19:57;33.30;;;29.77;;
37805;SDS011;25082;50.870;0.022;2022-08-18T11:22:29;42.40;;;36.05;;
37805;SDS011;25082;50.870;0.022;2022-08-18T11:24:57;40.22;;;34.38;;
37805;SDS011;25082;50.870;0.022;2022-08-18T11:27:25;35.58;;;31.77;;
37805;SDS011;25082;50.870;0.022;2022-08-18T11:30:00;39.17;;;33.58;;
37805;SDS011;25082;50.870;0.022;2022-08-18T11:32:35;38.85;;;33.95;;
37805;SDS011;25082;50.870;0.022;2022-08-18T11:35:05;37.30;;;31.63;;
37805;SDS011;25082;50.870;0.022;2022-08-18T11:40:52;35.55;;;31.80;;
37805;SDS011;25082;50.870;0.022;2022-08-18T11:58:39;38.60;;;32.95;;
37805;SDS011;25082;50.870;0.022;2022-08-18T12:04:20;32.25;;;27.88;;
37805;SDS011;25082;50.870;0.022;2022-08-18T12:07:07;30.70;;;27.27;;
37805;SDS011;25082;50.870;0.022;2022-08-18T12:09:42;31.90;;;26.90;;
37805;SDS011;25082;50.870;0.022;2022-08-18T12:12:14;31.30;;;26.58;;
37805;SDS011;25082;50.870;0.022;2022-08-18T12:17:25;31.52;;;27.35;;
37805;SDS011;25082;50.870;0.022;2022-08-18T12:19:52;30.77;;;26.90;;
37805;SDS011;25082;50.870;0.022;2022-08-18T12:22:20;33.92;;;28.98;;
37805;SDS011;25082;50.870;0.022;2022-08-18T12:24:47;33.75;;;28.95;;
37805;SDS011;25082;50.870;0.022;2022-08-18T12:27:13;31.45;;;28.10;;
37805;SDS011;25082;50.870;0.022;2022-08-18T12:29:41;32.75;;;27.88;;
37805;SDS011;25082;50.870;0.022;2022-08-18T12:32:07;34.63;;;27.50;;
37805;SDS011;25082;50.870;0.022;2022-08-18T12:34:33;29.45;;;26.00;;
37805;SDS011;25082;50.870;0.022;2022-08-18T12:36:59;27.08;;;24.00;;
37805;SDS011;25082;50.870;0.022;2022-08-18T12:39:26;29.48;;;26.38;;
37805;SDS011;25082;50.870;0.022;2022-08-18T12:41:52;29.85;;;26.50;;
37805;SDS011;25082;50.870;0.022;2022-08-18T12:44:19;32.65;;;26.90;;
37805;SDS011;25082;50.870;0.022;2022-08-18T12:46:45;30.52;;;25.65;;
37805;SDS011;25082;50.870;0.022;2022-08-18T12:49:15;28.60;;;24.40;;
37805;SDS011;25082;50.870;0.022;2022-08-18T12:51:46;27.77;;;24.83;;
37805;SDS011;25082;50.870;0.022;2022-08-18T12:54:13;29.10;;;24.40;;
37805;SDS011;25082;50.870;0.022;2022-08-18T12:56:39;27.90;;;24.95;;
37805;SDS011;25082;50.870;0.022;2022-08-18T12:59:07;26.08;;;23.33;;
37805;SDS011;25082;50.870;0.022;2022-08-18T13:01:35;25.90;;;20.83;;
37805;SDS011;25082;50.870;0.022;2022-08-18T13:04:03;25.55;;;22.50;;
37805;SDS011;25082;50.870;0.022;2022-08-18T13:06:30;23.65;;;21.10;;
37805;SDS011;25082;50.870;0.022;2022-08-18T13:08:58;24.85;;;20.33;;
37805;SDS011;25082;50.870;0.022;2022-08-18T13:11:24;24.90;;;20.58;;
37805;SDS011;25082;50.870;0.022;2022-08-18T13:13:51;21.48;;;18.83;;
37805;SDS011;25082;50.870;0.022;2022-08-18T13:16:18;21.55;;;18.70;;
37805;SDS011;25082;50.870;0.022;2022-08-18T13:18:44;20.02;;;17.95;;
37805;SDS011;25082;50.870;0.022;2022-08-18T13:21:11;17.90;;;16.02;;
37805;SDS011;25082;50.870;0.022;2022-08-18T13:23:39;18.52;;;15.57;;
37805;SDS011;25082;50.870;0.022;2022-08-18T13:26:07;17.75;;;15.90;;
37805;SDS011;25082;50.870;0.022;2022-08-18T13:28:36;19.88;;;16.65;;
37805;SDS011;25082;50.870;0.022;2022-08-18T13:31:04;22.92;;;16.38;;
37805;SDS011;25082;50.870;0.022;2022-08-18T13:33:30;18.55;;;15.23;;
37805;SDS011;25082;50.870;0.022;2022-08-18T13:35:57;20.75;;;17.50;;
37805;SDS011;25082;50.870;0.022;2022-08-18T13:38:22;21.33;;;17.17;;
37805;SDS011;25082;50.870;0.022;2022-08-18T13:40:50;19.13;;;16.65;;
37805;SDS011;25082;50.870;0.022;2022-08-18T13:43:19;23.65;;;16.90;;
37805;SDS011;25082;50.870;0.022;2022-08-18T13:45:50;20.10;;;15.90;;
37805;SDS011;25082;50.870;0.022;2022-08-18T13:48:16;17.65;;;15.73;;
37805;SDS011;25082;50.870;0.022;2022-08-18T13:50:42;18.83;;;15.73;;
37805;SDS011;25082;50.870;0.022;2022-08-18T13:53:13;16.95;;;15.23;;
37805;SDS011;25082;50.870;0.022;2022-08-18T13:55:43;17.10;;;13.60;;
37805;SDS011;25082;50.870;0.022;2022-08-18T13:58:10;14.15;;;12.60;;
37805;SDS011;25082;50.870;0.022;2022-08-18T14:00:37;18.92;;;13.20;;
37805;SDS011;25082;50.870;0.022;2022-08-18T14:03:03;14.77;;;12.02;;
37805;SDS011;25082;50.870;0.022;2022-08-18T14:05:30;17.65;;;12.52;;
37805;SDS011;25082;50.870;0.022;2022-08-18T14:07:57;14.57;;;11.65;;
37805;SDS011;25082;50.870;0.022;2022-08-18T14:10:24;15.32;;;12.23;;
37805;SDS011;25082;50.870;0.022;2022-08-18T14:12:51;15.18;;;11.52;;
37805;SDS011;25082;50.870;0.022;2022-08-18T14:15:20;16.85;;;11.52;;
37805;SDS011;25082;50.870;0.022;2022-08-18T14:17:47;15.55;;;11.80;;
37805;SDS011;25082;50.870;0.022;2022-08-18T14:20:13;15.93;;;11.30;;
37805;SDS011;25082;50.870;0.022;2022-08-18T14:22:58;19.35;;;11.50;;
37805;SDS011;25082;50.870;0.022;2022-08-18T14:25:43;16.48;;;12.07;;
37805;SDS011;25082;50.870;0.022;2022-08-18T14:28:28;16.60;;;11.13;;
37805;SDS011;25082;50.870;0.022;2022-08-18T14:30:57;14.38;;;10.95;;
37805;SDS011;25082;50.870;0.022;2022-08-18T14:33:25;14.52;;;11.35;;
37805;SDS011;25082;50.870;0.022;2022-08-18T14:35:52;22.23;;;10.93;;
37805;SDS011;25082;50.870;0.022;2022-08-18T14:38:19;19.13;;;11.55;;
37805;SDS011;25082;50.870;0.022;2022-08-18T14:40:45;13.50;;;10.13;;
37805;SDS011;25082;50.870;0.022;2022-08-18T14:43:13;15.02;;;9.40;;
37805;SDS011;25082;50.870;0.022;2022-08-18T14:45:41;16.85;;;10.15;;
37805;SDS011;25082;50.870;0.022;2022-08-18T14:50:44;13.65;;;9.52;;
37805;SDS011;25082;50.870;0.022;2022-08-18T14:53:14;17.60;;;9.70;;
37805;SDS011;25082;50.870;0.022;2022-08-18T14:55:44;15.05;;;9.23;;
37805;SDS011;25082;50.870;0.022;2022-08-18T14:58:11;14.25;;;9.48;;
37805;SDS011;25082;50.870;0.022;2022-08-18T15:00:38;14.55;;;9.68;;
37805;SDS011;25082;50.870;0.022;2022-08-18T15:03:04;12.85;;;8.40;;
37805;SDS011;25082;50.870;0.022;2022-08-18T15:05:31;12.93;;;8.75;;
37805;SDS011;25082;50.870;0.022;2022-08-18T15:07:58;12.05;;;8.85;;
37805;SDS011;25082;50.870;0.022;2022-08-18T15:10:27;13.38;;;9.63;;
37805;SDS011;25082;50.870;0.022;2022-08-18T15:12:53;16.15;;;8.75;;
37805;SDS011;25082;50.870;0.022;2022-08-18T15:15:21;15.50;;;8.18;;
37805;SDS011;25082;50.870;0.022;2022-08-18T15:17:48;22.42;;;8.65;;
37805;SDS011;25082;50.870;0.022;2022-08-18T15:20:14;14.02;;;8.07;;
37805;SDS011;25082;50.870;0.022;2022-08-18T15:22:41;14.23;;;7.45;;
37805;SDS011;25082;50.870;0.022;2022-08-18T15:25:26;11.90;;;7.28;;
37805;SDS011;25082;50.870;0.022;2022-08-18T15:28:16;16.08;;;7.45;;
37805;SDS011;25082;50.870;0.022;2022-08-18T15:30:44;11.02;;;6.57;;
37805;SDS011;25082;50.870;0.022;2022-08-18T15:33:13;9.25;;;6.45;;
37805;SDS011;25082;50.870;0.022;2022-08-18T15:35:43;9.13;;;6.57;;
37805;SDS011;25082;50.870;0.022;2022-08-18T15:38:12;15.38;;;6.85;;
37805;SDS011;25082;50.870;0.022;2022-08-18T15:40:55;8.25;;;6.22;;
37805;SDS011;25082;50.870;0.022;2022-08-18T15:43:23;9.20;;;6.38;;
37805;SDS011;25082;50.870;0.022;2022-08-18T15:45:51;8.85;;;6.00;;
37805;SDS011;25082;50.870;0.022;2022-08-18T15:48:19;10.95;;;6.22;;
37805;SDS011;25082;50.870;0.022;2022-08-18T15:50:46;10.23;;;5.80;;
37805;SDS011;25082;50.870;0.022;2022-08-18T15:53:14;11.40;;;6.22;;
37805;SDS011;25082;50.870;0.022;2022-08-18T15:55:42;6.45;;;5.50;;
37805;SDS011;25082;50.870;0.022;2022-08-18T15:58:09;7.95;;;5.40;;
37805;SDS011;25082;50.870;0.022;2022-08-18T16:00:36;10.73;;;5.85;;
37805;SDS011;25082;50.870;0.022;2022-08-18T16:03:04;14.40;;;5.70;;
37805;SDS011;25082;50.870;0.022;2022-08-18T16:05:36;13.82;;;6.47;;
37805;SDS011;25082;50.870;0.022;2022-08-18T16:08:05;9.13;;;5.72;;
37805;SDS011;25082;50.870;0.022;2022-08-18T16:10:33;13.32;;;6.45;;
37805;SDS011;25082;50.870;0.022;2022-08-18T16:13:01;12.68;;;5.65;;
37805;SDS011;25082;50.870;0.022;2022-08-18T16:15:29;9.65;;;5.82;;
37805;SDS011;25082;50.870;0.022;2022-08-18T16:17:58;9.20;;;5.68;;
37805;SDS011;25082;50.870;0.022;2022-08-18T16:20:24;8.73;;;5.38;;
37805;SDS011;25082;50.870;0.022;2022-08-18T16:22:53;8.95;;;5.75;;
37805;SDS011;25082;50.870;0.022;2022-08-18T16:25:19;10.63;;;5.40;;
37805;SDS011;25082;50.870;0.022;2022-08-18T16:27:45;11.25;;;6.05;;
37805;SDS011;25082;50.870;0.022;2022-08-18T16:30:13;9.82;;;6.00;;
37805;SDS011;25082;50.870;0.022;2022-08-18T16:32:42;10.35;;;6.40;;
37805;SDS011;25082;50.870;0.022;2022-08-18T16:35:09;13.20;;;5.68;;
37805;SDS011;25082;50.870;0.022;2022-08-18T16:37:35;10.13;;;6.18;;
37805;SDS011;25082;50.870;0.022;2022-08-18T16:40:01;11.13;;;5.28;;
37805;SDS011;25082;50.870;0.022;2022-08-18T16:42:27;9.55;;;5.53;;
37805;SDS011;25082;50.870;0.022;2022-08-18T16:45:00;9.20;;;4.88;;
37805;SDS011;25082;50.870;0.022;2022-08-18T16:47:28;11.88;;;5.93;;
37805;SDS011;25082;50.870;0.022;2022-08-18T16:49:56;10.25;;;4.90;;
37805;SDS011;25082;50.870;0.022;2022-08-18T16:52:22;8.65;;;5.03;;
37805;SDS011;25082;50.870;0.022;2022-08-18T16:54:48;8.73;;;5.57;;
37805;SDS011;25082;50.870;0.022;2022-08-18T16:57:14;7.85;;;4.80;;
37805;SDS011;25082;50.870;0.022;2022-08-18T17:00:04;8.65;;;5.00;;
37805;SDS011;25082;50.870;0.022;2022-08-18T17:02:49;10.30;;;5.32;;
37805;SDS011;25082;50.870;0.022;2022-08-18T17:05:33;7.10;;;4.70;;
37805;SDS011;25082;50.870;0.022;2022-08-18T17:07:59;6.63;;;5.22;;
37805;SDS011;25082;50.870;0.022;2022-08-18T17:10:25;8.70;;;5.20;;
37805;SDS011;25082;50.870;0.022;2022-08-18T17:12:51;7.82;;;5.00;;
37805;SDS011;25082;50.870;0.022;2022-08-18T17:15:17;13.25;;;5.53;;
37805;SDS011;25082;50.870;0.022;2022-08-18T17:17:43;12.15;;;6.00;;
37805;SDS011;25082;50.870;0.022;2022-08-18T17:20:09;12.02;;;5.65;;
37805;SDS011;25082;50.870;0.022;2022-08-18T17:22:35;13.60;;;5.75;;
37805;SDS011;25082;50.870;0.022;2022-08-18T17:25:01;12.18;;;6.15;;
37805;SDS011;25082;50.870;0.022;2022-08-18T17:27:30;13.80;;;5.60;;
37805;SDS011;25082;50.870;0.022;2022-08-18T17:29:59;9.50;;;5.68;;
37805;SDS011;25082;50.870;0.022;2022-08-18T17:32:45;11.70;;;5.90;;
37805;SDS011;25082;50.870;0.022;2022-08-18T17:37:59;7.65;;;5.60;;
37805;SDS011;25082;50.870;0.022;2022-08-18T17:40:39;6.97;;;4.78;;
37805;SDS011;25082;50.870;0.022;2022-08-18T17:43:17;9.63;;;4.78;;
37805;SDS011;25082;50.870;0.022;2022-08-18T17:45:46;7.70;;;4.70;;
37805;SDS011;25082;50.870;0.022;2022-08-18T17:48:19;9.18;;;4.35;;